Terminal Aerodrome Forecast
Issued by NWS

Home | Current Version | Previous Version | Text Only | Print | Product List | Glossary On
Versions: 1 2 3 4 5 6 7 8 9 10 11 12 13 14 15 16 17 18 19 20 21
000
FTUS46 KMTR 260500 AAA
TAFMRY
TAF AMD
KMRY 260546Z 2606/2706 VRB03KT 6SM BR SCT005
      TEMPO 2606/2608 BKN005
     FM260800 VRB03KT 6SM BR OVC004
     FM261000 VRB03KT 4SM BR OVC002
     FM261600 28005KT P6SM BKN005
     FM261800 26008KT P6SM FEW007
     FM270300 24006KT P6SM BKN006=

USA.gov is the U.S. government's official web portal to all federal, state and local government web resources and services.